Flight Track Log - Related Links

Times and Time Zones

All times are in EST time to prevent confusion due to time zone crossing. See the GTI4241 flight status page for this flight to view local times or setup timezone preferences in your user account.

Time Position Orientation Groundspeed Altitude Reporting Facility
EST Latitude Longitude Course Direction KTS MPH feet Rate Location/Type
Sun 08:56:25 PM 40.5833 -73.8167 150° Southeast 204 235 1,900  Level New York TRACON
Sun 08:57:31 PM 40.5167 -73.7667 150° Southeast 297 342 4,400 2,280 Climbing New York TRACON
Sun 09:03:26 PM 40.9670 -73.6572 150° Southeast 371 427 17,900 2,303 Climbing FlightAware ADS-B (KSNC)
Sun 09:04:07 PM 41.0295 -73.7078 329° Northwest 378 435 19,600 2,417 Climbing FlightAware ADS-B (KSNC)
Sun 09:04:38 PM 41.0745 -73.7445 328° Northwest 383 441 20,800 2,217 Climbing FlightAware ADS-B (KSNC)
Sun 09:04:53 PM 41.0949 -73.7638 325° Northwest 377 434 21,300 1,714 Climbing FlightAware ADS-B (KSNC)
Sun 09:05:20 PM 41.1207 -73.8171 303° West 375 432 22,000 724 Climbing FlightAware ADS-B (KSNC)
Sun 09:05:51 PM 41.1328 -73.8818 284° West 374 430 22,000 757 Level FlightAware ADS-B (KSNC)
Sun 09:07:03 PM 41.1579 -74.0457 282° West 378 435 23,300 1,340 Climbing FlightAware ADS-B (KSNC)
Sun 09:07:34 PM 41.1684 -74.1186 281° West 380 437 24,300 1,357 Climbing FlightAware ADS-B (KSNC)
Sun 09:08:58 PM 41.1884 -74.3171 278° West 384 442 25,900 843 Climbing FlightAware ADS-B (KWWD)
Sun 09:09:35 PM 41.1961 -74.4004 277° West 391 450 26,000 442 Climbing FlightAware ADS-B (KWWD)
Sun 09:10:33 PM 41.1652 -74.5379 253° West 392 451 26,600 825 Climbing FlightAware ADS-B (KWWD)
Sun 09:10:55 PM 41.1434 -74.5858 239° Southwest 412 474 27,100 1,600 Climbing FlightAware ADS-B (KWWD)
Sun 09:11:33 PM 41.1051 -74.6686 238° Southwest 413 475 28,200 1,342 Climbing FlightAware ADS-B (KWWD)
Sun 09:12:11 PM 41.0668 -74.7522 239° Southwest 422 486 28,800 1,233 Climbing FlightAware ADS-B (KWWD)
Sun 09:12:46 PM 41.0299 -74.8306 238° Southwest 430 495 29,700 1,378 Climbing FlightAware ADS-B (KWWD)
Sun 09:13:25 PM 40.9898 -74.9183 239° Southwest 428 493 30,500 1,079 Climbing FlightAware ADS-B (KWWD)
Sun 09:14:15 PM 40.9494 -75.0379 246° West 426 490 31,300 1,091 Climbing FlightAware ADS-B (KWWD)
Sun 09:14:53 PM 40.9248 -75.1319 251° West 425 489 32,100 1,263 Climbing FlightAware ADS-B (KWWD)
Sun 09:15:31 PM 40.9034 -75.2261 253° West 421 484 32,900 1,043 Climbing FlightAware ADS-B (KWWD)
Sun 09:16:02 PM 40.8892 -75.2964 255° West 425 489 33,300 952 Climbing FlightAware ADS-B (KWWD)
Sun 09:16:34 PM 40.8711 -75.3847 255° West 426 490 33,900 985 Climbing FlightAware ADS-B (KWWD)
Sun 09:17:09 PM 40.8517 -75.4725 254° West 429 494 34,400 971 Climbing FlightAware ADS-B (KWWD)
Sun 09:17:42 PM 40.8318 -75.5541 252° West 426 490 35,000 952 Climbing FlightAware ADS-B (KWWD)
Sun 09:18:12 PM 40.8138 -75.6281 252° West 424 488 35,400 800 Climbing FlightAware ADS-B (KWWD)
Sun 09:18:57 PM 40.7874 -75.7385 252° West 423 487 36,000 228 Climbing FlightAware ADS-B (KWWD)
Sun 09:20:50 PM 40.7269 -75.9902 252° West 421 484 36,000  Level FlightAware ADS-B
Sun 09:21:24 PM 40.7010 -76.0981 252° West 423 487 36,000  Level FlightAware ADS-B (KWWD)
Sun 09:21:57 PM 40.6841 -76.1669 252° West 424 488 36,000  Level FlightAware ADS-B
Sun 09:22:19 PM 40.6692 -76.2309 253° West 418 481 36,000  Level FlightAware ADS-B (KWWD)
Sun 09:23:16 PM 40.6783 -76.3714 275° West 416 479 36,000  Level FlightAware ADS-B (KWWD)
Sun 09:23:23 PM 40.6804 -76.3911 278° West 409 471 36,000  Level FlightAware ADS-B (KWWD)
Sun 09:23:55 PM 40.6861 -76.4706 275° West 411 473 36,000  Level FlightAware ADS-B (KWWD)
Sun 09:24:25 PM 40.6894 -76.5460 273° West 414 476 36,000  Level FlightAware ADS-B (KWWD)
Sun 09:25:05 PM 40.6948 -76.6489 274° West 415 478 36,000  Level FlightAware ADS-B (KWWD)
Sun 09:25:51 PM 40.7023 -76.7543 275° West 413 475 36,000  Level FlightAware ADS-B
Sun 09:27:42 PM 40.7216 -77.0376 275° West 407 468 36,000  Level FlightAware ADS-B (KWWD)
Sun 09:28:25 PM 40.7288 -77.1435 275° West 407 468 36,000  Level FlightAware ADS-B (KWWD)
Sun 09:28:59 PM 40.7342 -77.2276 275° West 407 468 36,000  Level FlightAware ADS-B (KWWD)
Sun 09:32:05 PM 40.7632 -77.6832 275° West 404 465 36,000  Level FlightAware ADS-B (KWWD)
Sun 09:32:55 PM 40.7707 -77.8061 275° West 405 466 36,000  Level FlightAware ADS-B (KWWD)
Sun 09:33:27 PM 40.7752 -77.8850 274° West 406 467 36,000  Level FlightAware ADS-B (KWWD)
Sun 09:34:03 PM 40.7794 -77.9658 274° West 404 465 36,000  Level Cleveland Center
Sun 09:35:04 PM 40.7886 -78.1122 275° West 402 463 36,000  Level Cleveland Center
Sun 09:36:05 PM 40.7972 -78.2589 274° West 401 461 36,000  Level Cleveland Center
Sun 09:42:07 PM 40.8424 -79.1179 274° West 393 452 36,000  Level FlightAware ADS-B (EPLB / LUZ)
Sun 09:44:38 PM 40.8608 -79.5067 274° West 391 450 36,000  Level FlightAware ADS-B (EPLB / LUZ)
Sun 09:45:42 PM 40.8675 -79.6572 273° West 393 452 36,000  Level FlightAware ADS-B (EPLB / LUZ)
Sun 09:47:30 PM 40.8789 -79.9212 273° West 395 455 36,000  Level FlightAware ADS-B (EPLB / LUZ)
Sun 09:48:22 PM 40.8833 -80.0164 273° West 396 456 36,000  Level Cleveland Center
Sun 09:49:23 PM 40.8886 -80.1583 273° West 393 452 36,000  Level Cleveland Center
Sun 09:54:31 PM 40.9159 -80.9058 273° West 378 435 36,000  Level FlightAware ADS-B (EPLB / LUZ)
Sun 09:55:48 PM 40.9209 -81.0582 273° West 379 436 36,000  Level FlightAware ADS-B (EPLB / LUZ)
Sun 09:56:20 PM 40.9219 -81.0883 273° West 379 436 36,000  Level FlightAware ADS-B (EPLB / LUZ)
Sun 09:57:01 PM 40.9269 -81.2503 272° West 379 436 36,000  Level FlightAware ADS-B (EPLB / LUZ)
Sun 09:59:51 PM 40.9375 -81.6157 272° West 375 432 36,000  Level FlightAware ADS-B (EPLB / LUZ)
Sun 10:00:36 PM 40.9411 -81.7331 272° West 375 432 36,000  Level Cleveland Center
Sun 10:01:37 PM 40.9450 -81.8728 272° West 375 432 36,000  Level Cleveland Center
Sun 10:02:38 PM 40.9475 -82.0119 271° West 374 430 36,000  Level Cleveland Center
Sun 10:03:40 PM 40.9508 -82.1503 272° West 372 428 36,000  Level Cleveland Center
Sun 10:04:41 PM 40.9539 -82.2883 272° West 373 429 36,000  Level Cleveland Center
Sun 10:05:42 PM 40.9453 -82.4278 265° West 376 433 36,000  Level Cleveland Center
Sun 10:06:43 PM 40.9192 -82.5703 256° West 390 449 36,000  Level Cleveland Center
Sun 10:07:44 PM 40.8961 -82.7111 258° West 390 449 36,000  Level Cleveland Center
Sun 10:08:45 PM 40.8744 -82.8517 259° West 387 445 36,000  Level Cleveland Center
Sun 10:09:27 PM 40.8578 -82.9453 257° West 388 447 36,000  Level Indianapolis Center
Sun 10:10:28 PM 40.8356 -83.0853 258° West 388 447 36,000  Level Indianapolis Center
Sun 10:11:29 PM 40.8114 -83.2247 257° West 388 447 36,000  Level Indianapolis Center
Sun 10:12:30 PM 40.7881 -83.3653 258° West 388 447 36,000  Level Indianapolis Center
Sun 10:13:31 PM 40.7628 -83.5119 257° West 388 447 36,000  Level Indianapolis Center
Sun 10:14:32 PM 40.7378 -83.6497 257° West 388 447 36,000  Level Indianapolis Center
Sun 10:15:32 PM 40.7142 -83.7858 257° West 388 447 36,000  Level Indianapolis Center
Sun 10:16:33 PM 40.6900 -83.9244 257° West 388 447 36,000  Level Indianapolis Center
Sun 10:17:34 PM 40.6661 -84.0586 257° West 384 442 36,000  Level Indianapolis Center
Sun 10:18:35 PM 40.6417 -84.1967 257° West 385 443 36,000  Level Indianapolis Center
Sun 10:19:36 PM 40.6125 -84.3597 257° West 385 443 36,000  Level Indianapolis Center
Sun 10:20:37 PM 40.5878 -84.4961 257° West 385 443 36,000  Level Indianapolis Center
Sun 10:21:38 PM 40.5628 -84.6336 257° West 385 443 36,000  Level Indianapolis Center
Sun 10:22:38 PM 40.5378 -84.7692 256° West 385 443 36,000  Level Indianapolis Center
Sun 10:23:39 PM 40.5128 -84.9075 257° West 387 445 36,000  Level Indianapolis Center
Sun 10:24:40 PM 40.4875 -85.0397 256° West 388 447 36,000  Level Indianapolis Center
Sun 10:25:41 PM 40.4619 -85.1753 256° West 388 447 36,000  Level Indianapolis Center
Sun 10:26:42 PM 40.4358 -85.3103 256° West 387 445 36,000  Level Indianapolis Center
Sun 10:27:42 PM 40.4108 -85.4453 256° West 386 444 36,000  Level Indianapolis Center
Sun 10:28:43 PM 40.3853 -85.5789 256° West 385 443 36,000  Level Indianapolis Center
Sun 10:29:44 PM 40.3544 -85.7383 256° West 383 441 36,000  Level Indianapolis Center
Sun 10:30:45 PM 40.3286 -85.8714 256° West 383 441 36,000  Level Indianapolis Center
Sun 10:31:45 PM 40.3039 -86.0036 256° West 381 438 36,000  Level Indianapolis Center
Sun 10:32:46 PM 40.2769 -86.1356 255° West 381 438 36,000  Level Indianapolis Center
Sun 10:33:47 PM 40.2508 -86.2681 256° West 380 437 36,000  Level Indianapolis Center
Sun 10:34:48 PM 40.2239 -86.4000 255° West 380 437 36,000  Level Indianapolis Center
Sun 10:35:48 PM 40.1978 -86.5322 256° West 380 437 36,000  Level Indianapolis Center
Sun 10:41:39 PM 40.0327 -87.3328 256° West 380 437 36,000  Level FlightAware ADS-B
Sun 10:43:26 PM 39.9829 -87.5687 255° West 379 436 36,000  Level FlightAware ADS-B
Sun 10:44:06 PM 39.9769 -87.5974 255° West 379 436 36,000  Level FlightAware ADS-B
Sun 10:45:08 PM 39.9352 -87.7927 254° West 378 435 36,000  Level FlightAware ADS-B
Sun 10:46:18 PM 39.9050 -87.9327 254° West 377 434 36,000  Level FlightAware ADS-B
Sun 10:46:48 PM 39.8880 -88.0134 255° West 377 434 36,000  Level FlightAware ADS-B
Sun 10:47:26 PM 39.8703 -88.0940 254° West 376 433 36,000  Level FlightAware ADS-B
Sun 10:48:06 PM 39.8515 -88.1811 254° West 376 433 36,000  Level FlightAware ADS-B
Sun 10:48:45 PM 39.8330 -88.2656 254° West 375 432 36,000  Level FlightAware ADS-B
Sun 10:49:18 PM 39.8183 -88.3330 254° West 375 432 36,000  Level FlightAware ADS-B
Sun 10:49:59 PM 39.7997 -88.4174 254° West 375 432 36,000  Level FlightAware ADS-B
Sun 10:50:43 PM 39.7774 -88.5172 254° West 376 433 36,000  Level FlightAware ADS-B
Sun 10:51:19 PM 39.7594 -88.5995 254° West 377 434 36,000  Level FlightAware ADS-B
Sun 10:51:59 PM 39.7396 -88.6865 254° West 377 434 36,000  Level FlightAware ADS-B
Sun 10:53:48 PM 39.6866 -88.9234 254° West 377 434 36,000  Level FlightAware ADS-B
Sun 10:54:55 PM 39.6556 -89.0688 255° West 372 428 36,000  Level FlightAware ADS-B
Sun 10:56:01 PM 39.6310 -89.2119 257° West 369 425 36,000  Level FlightAware ADS-B
Sun 10:56:33 PM 39.6184 -89.2808 257° West 368 423 36,000  Level FlightAware ADS-B
Sun 10:57:08 PM 39.6046 -89.3555 257° West 367 422 36,000  Level FlightAware ADS-B
Sun 10:57:38 PM 39.5938 -89.4112 256° West 367 422 36,000  Level FlightAware ADS-B
Sun 10:58:10 PM 39.5798 -89.4881 257° West 366 421 36,000  Level FlightAware ADS-B
Sun 10:58:45 PM 39.5659 -89.5625 256° West 365 420 36,000  Level FlightAware ADS-B
Sun 10:59:16 PM 39.5539 -89.6282 257° West 364 419 36,000  Level FlightAware ADS-B
Sun 10:59:49 PM 39.5410 -89.6980 257° West 363 418 36,000  Level FlightAware ADS-B
Sun 11:00:53 PM 39.5225 -89.7981 257° West 363 418 36,000  Level Kansas City Center
Sun 11:01:53 PM 39.4944 -89.9483 256° West 361 415 36,000  Level Kansas City Center
Sun 11:02:54 PM 39.4708 -90.0744 256° West 362 417 36,000  Level Kansas City Center
Sun 11:03:55 PM 39.4464 -90.1992 256° West 361 415 36,000  Level Kansas City Center
Sun 11:04:56 PM 39.4233 -90.3217 256° West 358 412 36,000  Level Kansas City Center
Sun 11:05:57 PM 39.3992 -90.4458 256° West 358 412 36,000  Level Kansas City Center
Sun 11:06:57 PM 39.3753 -90.5689 256° West 356 410 36,000  Level Kansas City Center
Sun 11:07:58 PM 39.3514 -90.6914 256° West 356 410 36,000  Level Kansas City Center
Sun 11:08:57 PM 39.3267 -90.8150 256° West 356 410 36,000  Level Kansas City Center
Sun 11:09:58 PM 39.3031 -90.9372 256° West 355 409 36,000  Level Kansas City Center
Sun 11:10:58 PM 39.2778 -91.0600 255° West 355 409 36,000  Level Kansas City Center
Sun 11:12:01 PM 39.2536 -91.1833 256° West 356 410 36,000  Level Kansas City Center
Sun 11:13:01 PM 39.2250 -91.3294 256° West 354 407 36,000  Level Kansas City Center
Sun 11:14:01 PM 39.2006 -91.4525 256° West 355 409 36,000  Level Kansas City Center
Sun 11:15:03 PM 39.1753 -91.5747 255° West 355 409 36,000  Level Kansas City Center
Sun 11:16:04 PM 39.1508 -91.6983 256° West 356 410 36,000  Level Kansas City Center
Sun 11:17:05 PM 39.1275 -91.8092 255° West 356 410 36,000  Level Kansas City Center
Sun 11:18:04 PM 39.1022 -91.9322 255° West 356 410 36,000  Level Kansas City Center
Sun 11:19:06 PM 39.0703 -92.0769 254° West 352 405 36,000  Level Kansas City Center
Sun 11:20:07 PM 39.0447 -92.2006 255° West 355 409 36,000  Level Kansas City Center
Sun 11:21:08 PM 39.0183 -92.3247 255° West 358 412 36,000  Level Kansas City Center
Sun 11:22:08 PM 38.9922 -92.4483 255° West 359 413 36,000  Level Kansas City Center
Sun 11:23:09 PM 38.9656 -92.5719 255° West 359 413 36,000  Level Kansas City Center
Sun 11:24:10 PM 38.9386 -92.6981 255° West 362 417 36,000  Level Kansas City Center
Sun 11:25:10 PM 38.9108 -92.8247 254° West 366 421 36,000  Level Kansas City Center
Sun 11:26:12 PM 38.8836 -92.9506 255° West 367 422 36,000  Level Kansas City Center
Sun 11:27:10 PM 38.8553 -93.0764 254° West 367 422 36,000  Level Kansas City Center
Sun 11:28:12 PM 38.8286 -93.2008 255° West 364 419 36,000  Level Kansas City Center
Sun 11:29:12 PM 38.8014 -93.3228 254° West 360 414 36,000  Level Kansas City Center
Sun 11:30:14 PM 38.7744 -93.4467 254° West 359 413 36,000  Level Kansas City Center
Sun 11:31:15 PM 38.7472 -93.5683 254° West 358 412 36,000  Level Kansas City Center
Sun 11:32:15 PM 38.7194 -93.6925 254° West 360 414 36,000  Level Kansas City Center
Sun 11:33:16 PM 38.6925 -93.8133 254° West 363 418 36,000  Level Kansas City Center
Sun 11:34:17 PM 38.6614 -93.9514 254° West 362 417 36,000  Level Kansas City Center
Sun 11:35:14 PM 38.6342 -94.0706 254° West 364 419 36,000  Level Kansas City Center
Sun 11:36:16 PM 38.6064 -94.1897 253° West 365 420 36,000  Level Kansas City Center
Sun 11:37:18 PM 38.5792 -94.3094 254° West 365 420 36,000  Level Kansas City Center
Sun 11:38:17 PM 38.5464 -94.4486 253° West 366 421 36,000  Level Kansas City Center
Sun 11:39:19 PM 38.5189 -94.5661 253° West 362 417 36,000  Level Kansas City Center
Sun 11:40:20 PM 38.4908 -94.6856 253° West 365 420 36,000  Level Kansas City Center
Sun 11:41:18 PM 38.4586 -94.8247 254° West 366 421 36,000  Level Kansas City Center
Sun 11:42:21 PM 38.4297 -94.9425 253° West 364 419 36,000  Level Kansas City Center
Sun 11:43:20 PM 38.4011 -95.0617 253° West 366 421 36,000  Level Kansas City Center
Sun 11:44:20 PM 38.3683 -95.1994 253° West 364 419 36,000  Level Kansas City Center
Sun 11:45:22 PM 38.3394 -95.3161 253° West 363 418 36,000  Level Kansas City Center
Sun 11:46:23 PM 38.3111 -95.4347 253° West 364 419 36,000 -153 Level Kansas City Center
Sun 11:47:20 PM 38.2825 -95.5561 253° West 368 423 35,700 -793 Descending Kansas City Center
Sun 11:48:24 PM 38.2492 -95.6919 253° West 361 415 34,400 -1,306 Descending Kansas City Center
Sun 11:49:24 PM 38.2203 -95.8092 253° West 361 415 33,000 -2,050 Descending Kansas City Center
Sun 11:50:24 PM 38.1919 -95.9228 252° West 354 407 30,300 -2,876 Descending Kansas City Center
Sun 11:51:25 PM 38.1600 -96.0519 253° West 343 395 27,200 -2,852 Descending Kansas City Center
Sun 11:52:26 PM 38.1339 -96.1583 253° West 341 392 24,500 -2,370 Descending Kansas City Center
Sun 11:53:24 PM 38.1053 -96.2728 252° West 340 391 22,500 -2,300 Descending Kansas City Center
Sun 11:54:26 PM 38.0772 -96.3858 253° West 338 389 19,900 -2,439 Descending Kansas City Center
Sun 11:55:27 PM 38.0486 -96.4964 252° West 330 380 17,500 -2,507 Descending Kansas City Center
Sun 11:55:33 PM 38.0422 -96.5172 249° West 329 379 17,100 -2,100 Descending Kansas City Center
Sun 11:56:27 PM 38.0219 -96.6028 253° West 321 369 15,400 -2,000 Descending Kansas City Center
Sun 11:56:33 PM 38.0156 -96.6228 248° West 312 359 15,100 -2,644 Descending Kansas City Center
Sun 11:57:26 PM 37.9958 -96.7025 253° West 303 349 12,800 -2,847 Descending Kansas City Center
Sun 11:57:32 PM 37.9897 -96.7200 246° West 295 339 12,300 -2,419 Descending Kansas City Center
Sun 11:58:28 PM 37.9694 -96.8006 252° West 296 341 10,300 -2,032 Descending Kansas City Center
Sun 11:58:34 PM 37.9622 -96.8203 245° Southwest 295 339 10,200 -393 Descending Kansas City Center
Sun 11:59:29 PM 37.9461 -96.8925 254° West 275 316 9,900 -492 Descending Kansas City Center
Sun 11:59:35 PM 37.9417 -96.9058 247° West 248 285 9,700 -1,300 Descending Kansas City Center
Mon 12:00:29 AM 37.9247 -96.9725 252° West 246 283 8,600 -1,300 Descending Kansas City Center
Mon 12:00:35 AM 37.9206 -96.9889 252° West 240 276 8,400 -1,475 Descending Kansas City Center
Mon 12:01:30 AM 37.9053 -97.0528 253° West 240 276 7,100 -1,672 Descending Kansas City Center
Mon 12:01:36 AM 37.8997 -97.0747 252° West 236 272 6,700 -1,424 Descending Kansas City Center
Mon 12:02:29 AM 37.8892 -97.1311 257° West 232 267 5,700 -1,220 Descending Kansas City Center
Mon 12:02:35 AM 37.8844 -97.1514 254° West 224 258 5,500 -984 Descending Kansas City Center
Mon 12:03:30 AM 37.8606 -97.1844 228° Southwest 191 220 4,700 -1,180 Descending Kansas City Center
Mon 12:03:36 AM 37.8511 -97.1964 225° Southwest 170 196 4,300 -984 Descending Kansas City Center
Mon 12:04:31 AM 37.8203 -97.2136 204° Southwest 178 205 3,700 -787 Descending Kansas City Center
Mon 12:04:37 AM 37.8089 -97.2164 191° South 165 190 3,500 -724 Descending Kansas City Center
Mon 12:05:29 AM 37.7772 -97.2261 194° South 166 191 3,000 -492 Descending Kansas City Center
Mon 12:05:38 AM 37.7681 -97.2281 190° South 148 170 3,000  Level Kansas City Center
Mon 12:06:30 AM 37.7375 -97.2364 192° South 155 178 3,000  Level Kansas City Center
Mon 12:06:39 AM 37.7269 -97.2397 194° South 145 167 3,000 -300 Level Kansas City Center
Mon 12:07:30 AM 37.6992 -97.2469 192° South 148 170 2,700 -500 Descending Kansas City Center
Mon 12:07:39 AM 37.6903 -97.2508 199° South 136 157 2,500 -677 Descending Kansas City Center
Mon 12:08:32 AM 37.6628 -97.2578 191° South 141 162 2,000 -712 Descending Kansas City Center
Mon 12:08:38 AM 37.6536 -97.2619 200° South 137 158 1,800 -393 Descending Kansas City Center
Mon 12:09:33 AM 37.6197 -97.2711 192° South 139 160 1,600 -218 Descending Kansas City Center
Mon 12:11:00 AM 37.6167 -97.2667 North  Level FlightAware Approximate

Login

Don't have an account? Register now (free) for customized features, flight alerts, and more!